sensor_id;sensor_type;location;lat;lon;timestamp;P1;durP1;ratioP1;P2;durP2;ratioP2
34872;SDS011;21084;51.098;14.506;2023-03-24T00:01:25;4.18;;;2.75;;
34872;SDS011;21084;51.098;14.506;2023-03-24T00:03:54;5.20;;;2.38;;
34872;SDS011;21084;51.098;14.506;2023-03-24T00:06:24;5.07;;;2.88;;
34872;SDS011;21084;51.098;14.506;2023-03-24T00:08:53;3.65;;;2.60;;
34872;SDS011;21084;51.098;14.506;2023-03-24T00:11:21;5.15;;;2.22;;
34872;SDS011;21084;51.098;14.506;2023-03-24T00:13:52;3.58;;;2.22;;
34872;SDS011;21084;51.098;14.506;2023-03-24T00:16:24;4.55;;;2.65;;
34872;SDS011;21084;51.098;14.506;2023-03-24T00:18:53;4.40;;;2.67;;
34872;SDS011;21084;51.098;14.506;2023-03-24T00:21:23;4.10;;;2.60;;
34872;SDS011;21084;51.098;14.506;2023-03-24T00:23:54;4.88;;;2.60;;
34872;SDS011;21084;51.098;14.506;2023-03-24T00:26:24;5.25;;;2.75;;
34872;SDS011;21084;51.098;14.506;2023-03-24T00:28:52;3.65;;;2.55;;
34872;SDS011;21084;51.098;14.506;2023-03-24T00:31:23;5.88;;;3.05;;
34872;SDS011;21084;51.098;14.506;2023-03-24T00:33:52;5.32;;;2.70;;
34872;SDS011;21084;51.098;14.506;2023-03-24T00:36:21;5.07;;;2.70;;
34872;SDS011;21084;51.098;14.506;2023-03-24T00:38:52;4.38;;;2.70;;
34872;SDS011;21084;51.098;14.506;2023-03-24T00:41:22;5.05;;;2.30;;
34872;SDS011;21084;51.098;14.506;2023-03-24T00:43:53;5.63;;;2.72;;
34872;SDS011;21084;51.098;14.506;2023-03-24T00:46:24;6.85;;;2.85;;
34872;SDS011;21084;51.098;14.506;2023-03-24T00:48:58;4.15;;;2.25;;
34872;SDS011;21084;51.098;14.506;2023-03-24T00:51:33;5.35;;;3.00;;
34872;SDS011;21084;51.098;14.506;2023-03-24T00:54:05;5.53;;;2.60;;
34872;SDS011;21084;51.098;14.506;2023-03-24T00:56:37;7.22;;;2.55;;
34872;SDS011;21084;51.098;14.506;2023-03-24T00:59:07;3.50;;;2.47;;
34872;SDS011;21084;51.098;14.506;2023-03-24T01:01:39;5.35;;;2.55;;
34872;SDS011;21084;51.098;14.506;2023-03-24T01:04:09;5.18;;;3.17;;
34872;SDS011;21084;51.098;14.506;2023-03-24T01:06:38;3.88;;;2.53;;
34872;SDS011;21084;51.098;14.506;2023-03-24T01:09:08;5.93;;;2.20;;
34872;SDS011;21084;51.098;14.506;2023-03-24T01:11:38;5.03;;;2.50;;
34872;SDS011;21084;51.098;14.506;2023-03-24T01:16:37;5.32;;;3.15;;
34872;SDS011;21084;51.098;14.506;2023-03-24T01:19:06;8.87;;;3.10;;
34872;SDS011;21084;51.098;14.506;2023-03-24T01:21:36;6.00;;;2.63;;
34872;SDS011;21084;51.098;14.506;2023-03-24T01:24:05;8.20;;;3.08;;
34872;SDS011;21084;51.098;14.506;2023-03-24T01:26:36;5.43;;;2.72;;
34872;SDS011;21084;51.098;14.506;2023-03-24T01:29:04;6.82;;;3.30;;
34872;SDS011;21084;51.098;14.506;2023-03-24T01:31:33;5.82;;;3.00;;
34872;SDS011;21084;51.098;14.506;2023-03-24T01:34:02;5.10;;;3.08;;
34872;SDS011;21084;51.098;14.506;2023-03-24T01:36:32;6.40;;;2.92;;
34872;SDS011;21084;51.098;14.506;2023-03-24T01:39:01;5.95;;;2.85;;
34872;SDS011;21084;51.098;14.506;2023-03-24T01:41:33;7.13;;;3.00;;
34872;SDS011;21084;51.098;14.506;2023-03-24T01:44:22;5.22;;;3.25;;
34872;SDS011;21084;51.098;14.506;2023-03-24T01:46:56;6.90;;;3.55;;
34872;SDS011;21084;51.098;14.506;2023-03-24T01:49:28;5.70;;;3.50;;
34872;SDS011;21084;51.098;14.506;2023-03-24T01:52:00;7.30;;;3.80;;
34872;SDS011;21084;51.098;14.506;2023-03-24T01:54:32;7.97;;;3.83;;
34872;SDS011;21084;51.098;14.506;2023-03-24T01:57:05;8.30;;;4.03;;
34872;SDS011;21084;51.098;14.506;2023-03-24T01:59:40;7.90;;;4.32;;
34872;SDS011;21084;51.098;14.506;2023-03-24T02:02:12;7.10;;;4.20;;
34872;SDS011;21084;51.098;14.506;2023-03-24T02:04:43;5.97;;;4.10;;
34872;SDS011;21084;51.098;14.506;2023-03-24T02:07:22;8.15;;;4.70;;
34872;SDS011;21084;51.098;14.506;2023-03-24T02:10:03;8.07;;;4.45;;
34872;SDS011;21084;51.098;14.506;2023-03-24T02:12:35;9.20;;;4.13;;
34872;SDS011;21084;51.098;14.506;2023-03-24T02:15:05;9.38;;;4.85;;
34872;SDS011;21084;51.098;14.506;2023-03-24T02:17:42;6.88;;;4.18;;
34872;SDS011;21084;51.098;14.506;2023-03-24T02:20:29;8.52;;;4.30;;
34872;SDS011;21084;51.098;14.506;2023-03-24T02:32:25;6.88;;;4.60;;
34872;SDS011;21084;51.098;14.506;2023-03-24T02:35:29;11.10;;;5.15;;
34872;SDS011;21084;51.098;14.506;2023-03-24T02:38:28;7.60;;;4.72;;
34872;SDS011;21084;51.098;14.506;2023-03-24T02:41:20;10.25;;;4.97;;
34872;SDS011;21084;51.098;14.506;2023-03-24T02:43:56;7.43;;;4.60;;
34872;SDS011;21084;51.098;14.506;2023-03-24T02:46:34;11.52;;;5.65;;
34872;SDS011;21084;51.098;14.506;2023-03-24T02:49:10;9.65;;;4.72;;
34872;SDS011;21084;51.098;14.506;2023-03-24T02:51:49;9.60;;;5.45;;
34872;SDS011;21084;51.098;14.506;2023-03-24T02:54:26;8.30;;;5.07;;
34872;SDS011;21084;51.098;14.506;2023-03-24T02:57:06;10.30;;;4.80;;
34872;SDS011;21084;51.098;14.506;2023-03-24T02:59:39;10.23;;;5.40;;
34872;SDS011;21084;51.098;14.506;2023-03-24T03:02:11;10.02;;;5.57;;
34872;SDS011;21084;51.098;14.506;2023-03-24T03:04:44;9.32;;;5.07;;
34872;SDS011;21084;51.098;14.506;2023-03-24T03:07:18;9.25;;;5.32;;
34872;SDS011;21084;51.098;14.506;2023-03-24T03:09:55;8.80;;;5.55;;
34872;SDS011;21084;51.098;14.506;2023-03-24T03:12:29;9.00;;;5.57;;
34872;SDS011;21084;51.098;14.506;2023-03-24T03:15:02;13.80;;;5.50;;
34872;SDS011;21084;51.098;14.506;2023-03-24T03:17:34;13.18;;;6.63;;
34872;SDS011;21084;51.098;14.506;2023-03-24T03:20:06;8.63;;;5.63;;
34872;SDS011;21084;51.098;14.506;2023-03-24T03:22:41;9.77;;;6.15;;
34872;SDS011;21084;51.098;14.506;2023-03-24T03:25:18;12.93;;;5.80;;
34872;SDS011;21084;51.098;14.506;2023-03-24T03:27:51;10.02;;;5.57;;
34872;SDS011;21084;51.098;14.506;2023-03-24T03:30:25;11.60;;;5.65;;
34872;SDS011;21084;51.098;14.506;2023-03-24T03:33:00;13.52;;;5.85;;
34872;SDS011;21084;51.098;14.506;2023-03-24T03:35:34;10.80;;;5.90;;
34872;SDS011;21084;51.098;14.506;2023-03-24T03:38:08;12.30;;;6.03;;
34872;SDS011;21084;51.098;14.506;2023-03-24T03:40:42;10.02;;;5.95;;
34872;SDS011;21084;51.098;14.506;2023-03-24T03:43:18;11.35;;;6.13;;
34872;SDS011;21084;51.098;14.506;2023-03-24T03:45:47;10.90;;;5.57;;
34872;SDS011;21084;51.098;14.506;2023-03-24T03:48:16;11.07;;;6.25;;
34872;SDS011;21084;51.098;14.506;2023-03-24T03:50:46;11.23;;;6.05;;
34872;SDS011;21084;51.098;14.506;2023-03-24T03:53:25;8.40;;;5.70;;
34872;SDS011;21084;51.098;14.506;2023-03-24T03:55:57;9.05;;;5.95;;
34872;SDS011;21084;51.098;14.506;2023-03-24T03:58:29;11.32;;;6.30;;
34872;SDS011;21084;51.098;14.506;2023-03-24T04:00:58;9.75;;;5.70;;
34872;SDS011;21084;51.098;14.506;2023-03-24T04:03:31;11.63;;;6.50;;
34872;SDS011;21084;51.098;14.506;2023-03-24T04:06:21;10.32;;;6.15;;
34872;SDS011;21084;51.098;14.506;2023-03-24T04:09:04;10.32;;;6.13;;
34872;SDS011;21084;51.098;14.506;2023-03-24T04:11:49;10.63;;;6.30;;
34872;SDS011;21084;51.098;14.506;2023-03-24T04:14:45;12.55;;;6.13;;
34872;SDS011;21084;51.098;14.506;2023-03-24T04:17:45;10.93;;;6.30;;
34872;SDS011;21084;51.098;14.506;2023-03-24T04:20:46;12.68;;;6.43;;
34872;SDS011;21084;51.098;14.506;2023-03-24T04:23:27;12.40;;;6.10;;
34872;SDS011;21084;51.098;14.506;2023-03-24T04:26:25;11.55;;;6.03;;
34872;SDS011;21084;51.098;14.506;2023-03-24T04:29:36;11.45;;;6.05;;
34872;SDS011;21084;51.098;14.506;2023-03-24T04:32:15;11.63;;;6.32;;
34872;SDS011;21084;51.098;14.506;2023-03-24T04:34:54;11.15;;;5.93;;
34872;SDS011;21084;51.098;14.506;2023-03-24T04:37:28;13.85;;;6.32;;
34872;SDS011;21084;51.098;14.506;2023-03-24T04:40:04;10.48;;;6.13;;
34872;SDS011;21084;51.098;14.506;2023-03-24T04:42:38;10.55;;;6.10;;
34872;SDS011;21084;51.098;14.506;2023-03-24T04:48:07;9.82;;;5.72;;
34872;SDS011;21084;51.098;14.506;2023-03-24T04:50:53;10.57;;;5.85;;
34872;SDS011;21084;51.098;14.506;2023-03-24T04:53:43;12.18;;;6.43;;
34872;SDS011;21084;51.098;14.506;2023-03-24T04:56:38;13.70;;;6.65;;
34872;SDS011;21084;51.098;14.506;2023-03-24T04:59:17;12.07;;;6.27;;
34872;SDS011;21084;51.098;14.506;2023-03-24T05:01:54;9.23;;;5.80;;
34872;SDS011;21084;51.098;14.506;2023-03-24T05:04:24;10.73;;;5.95;;
34872;SDS011;21084;51.098;14.506;2023-03-24T05:06:55;10.93;;;6.20;;
34872;SDS011;21084;51.098;14.506;2023-03-24T05:09:24;13.38;;;6.47;;
34872;SDS011;21084;51.098;14.506;2023-03-24T05:11:53;7.63;;;5.38;;
34872;SDS011;21084;51.098;14.506;2023-03-24T05:14:22;11.20;;;6.63;;
34872;SDS011;21084;51.098;14.506;2023-03-24T05:16:51;11.02;;;6.20;;
34872;SDS011;21084;51.098;14.506;2023-03-24T05:19:21;9.45;;;5.85;;
34872;SDS011;21084;51.098;14.506;2023-03-24T05:21:50;11.73;;;6.35;;
34872;SDS011;21084;51.098;14.506;2023-03-24T05:24:19;10.90;;;6.30;;
34872;SDS011;21084;51.098;14.506;2023-03-24T05:26:48;12.23;;;6.43;;
34872;SDS011;21084;51.098;14.506;2023-03-24T05:29:17;9.97;;;5.87;;
34872;SDS011;21084;51.098;14.506;2023-03-24T05:31:46;11.10;;;5.90;;
34872;SDS011;21084;51.098;14.506;2023-03-24T05:34:15;12.43;;;6.00;;
34872;SDS011;21084;51.098;14.506;2023-03-24T05:36:46;10.10;;;5.75;;
34872;SDS011;21084;51.098;14.506;2023-03-24T05:39:14;12.75;;;6.45;;
34872;SDS011;21084;51.098;14.506;2023-03-24T05:41:43;9.70;;;6.03;;
34872;SDS011;21084;51.098;14.506;2023-03-24T05:44:12;16.58;;;6.13;;
34872;SDS011;21084;51.098;14.506;2023-03-24T05:46:40;9.75;;;6.03;;
34872;SDS011;21084;51.098;14.506;2023-03-24T05:49:09;9.13;;;5.63;;
34872;SDS011;21084;51.098;14.506;2023-03-24T05:51:39;10.80;;;6.10;;
34872;SDS011;21084;51.098;14.506;2023-03-24T05:54:09;13.52;;;5.93;;
34872;SDS011;21084;51.098;14.506;2023-03-24T05:56:38;11.70;;;5.68;;
34872;SDS011;21084;51.098;14.506;2023-03-24T05:59:06;9.45;;;6.38;;
34872;SDS011;21084;51.098;14.506;2023-03-24T06:01:37;10.45;;;6.20;;
34872;SDS011;21084;51.098;14.506;2023-03-24T06:04:08;8.50;;;5.32;;
34872;SDS011;21084;51.098;14.506;2023-03-24T06:06:37;9.23;;;5.55;;
34872;SDS011;21084;51.098;14.506;2023-03-24T06:09:06;11.20;;;6.00;;
34872;SDS011;21084;51.098;14.506;2023-03-24T06:11:38;10.25;;;5.53;;
34872;SDS011;21084;51.098;14.506;2023-03-24T06:14:06;9.73;;;5.88;;
34872;SDS011;21084;51.098;14.506;2023-03-24T06:16:35;8.77;;;5.40;;
34872;SDS011;21084;51.098;14.506;2023-03-24T06:19:05;10.35;;;5.57;;
34872;SDS011;21084;51.098;14.506;2023-03-24T06:21:34;8.75;;;5.57;;
34872;SDS011;21084;51.098;14.506;2023-03-24T06:24:03;8.05;;;5.35;;
34872;SDS011;21084;51.098;14.506;2023-03-24T06:26:34;12.23;;;5.45;;
34872;SDS011;21084;51.098;14.506;2023-03-24T06:31:31;12.20;;;5.10;;
34872;SDS011;21084;51.098;14.506;2023-03-24T06:34:01;10.18;;;4.82;;
34872;SDS011;21084;51.098;14.506;2023-03-24T06:36:30;10.40;;;5.30;;
34872;SDS011;21084;51.098;14.506;2023-03-24T06:39:00;7.70;;;4.75;;
34872;SDS011;21084;51.098;14.506;2023-03-24T06:41:29;8.05;;;4.80;;
34872;SDS011;21084;51.098;14.506;2023-03-24T06:44:00;9.73;;;5.37;;
34872;SDS011;21084;51.098;14.506;2023-03-24T06:48:57;10.32;;;4.72;;
34872;SDS011;21084;51.098;14.506;2023-03-24T06:51:25;7.25;;;4.60;;
34872;SDS011;21084;51.098;14.506;2023-03-24T06:53:54;9.07;;;5.43;;
34872;SDS011;21084;51.098;14.506;2023-03-24T06:56:22;8.80;;;4.78;;
34872;SDS011;21084;51.098;14.506;2023-03-24T06:58:51;7.72;;;4.90;;
34872;SDS011;21084;51.098;14.506;2023-03-24T07:01:21;10.45;;;4.93;;
34872;SDS011;21084;51.098;14.506;2023-03-24T07:03:50;9.32;;;4.38;;
34872;SDS011;21084;51.098;14.506;2023-03-24T07:06:19;7.88;;;4.30;;
34872;SDS011;21084;51.098;14.506;2023-03-24T07:08:48;9.02;;;4.60;;
34872;SDS011;21084;51.098;14.506;2023-03-24T07:11:18;6.45;;;4.22;;
34872;SDS011;21084;51.098;14.506;2023-03-24T07:13:46;6.85;;;4.13;;
34872;SDS011;21084;51.098;14.506;2023-03-24T07:16:15;6.18;;;4.35;;
34872;SDS011;21084;51.098;14.506;2023-03-24T07:18:45;7.18;;;4.50;;
34872;SDS011;21084;51.098;14.506;2023-03-24T07:21:14;8.20;;;4.30;;
34872;SDS011;21084;51.098;14.506;2023-03-24T07:23:44;8.60;;;4.10;;
34872;SDS011;21084;51.098;14.506;2023-03-24T07:26:13;10.95;;;4.30;;
34872;SDS011;21084;51.098;14.506;2023-03-24T07:28:42;8.55;;;4.13;;
34872;SDS011;21084;51.098;14.506;2023-03-24T07:31:10;12.07;;;4.95;;
34872;SDS011;21084;51.098;14.506;2023-03-24T07:33:39;7.82;;;4.38;;
34872;SDS011;21084;51.098;14.506;2023-03-24T07:36:09;8.50;;;4.55;;
34872;SDS011;21084;51.098;14.506;2023-03-24T07:38:38;8.20;;;4.57;;
34872;SDS011;21084;51.098;14.506;2023-03-24T07:41:07;8.35;;;5.10;;
34872;SDS011;21084;51.098;14.506;2023-03-24T07:43:36;9.77;;;4.88;;
34872;SDS011;21084;51.098;14.506;2023-03-24T07:46:04;11.35;;;4.80;;
34872;SDS011;21084;51.098;14.506;2023-03-24T07:48:36;9.30;;;4.90;;
34872;SDS011;21084;51.098;14.506;2023-03-24T07:51:05;9.07;;;4.70;;
34872;SDS011;21084;51.098;14.506;2023-03-24T07:53:35;7.25;;;4.55;;
34872;SDS011;21084;51.098;14.506;2023-03-24T07:58:32;7.82;;;4.63;;
34872;SDS011;21084;51.098;14.506;2023-03-24T08:01:01;8.65;;;4.72;;
34872;SDS011;21084;51.098;14.506;2023-03-24T08:03:29;10.48;;;5.40;;
34872;SDS011;21084;51.098;14.506;2023-03-24T08:05:59;8.55;;;4.40;;
34872;SDS011;21084;51.098;14.506;2023-03-24T08:08:28;7.40;;;4.28;;
34872;SDS011;21084;51.098;14.506;2023-03-24T08:10:58;7.45;;;4.47;;
34872;SDS011;21084;51.098;14.506;2023-03-24T08:13:26;9.38;;;4.47;;
34872;SDS011;21084;51.098;14.506;2023-03-24T08:15:55;9.20;;;4.63;;
34872;SDS011;21084;51.098;14.506;2023-03-24T08:18:24;8.60;;;4.63;;
34872;SDS011;21084;51.098;14.506;2023-03-24T08:20:53;6.95;;;4.53;;
34872;SDS011;21084;51.098;14.506;2023-03-24T08:23:23;8.43;;;3.70;;
34872;SDS011;21084;51.098;14.506;2023-03-24T08:25:53;7.32;;;4.07;;
34872;SDS011;21084;51.098;14.506;2023-03-24T08:28:23;6.68;;;4.50;;
34872;SDS011;21084;51.098;14.506;2023-03-24T08:30:51;6.15;;;4.05;;
34872;SDS011;21084;51.098;14.506;2023-03-24T08:33:20;6.82;;;3.85;;
34872;SDS011;21084;51.098;14.506;2023-03-24T08:35:48;12.52;;;5.53;;
34872;SDS011;21084;51.098;14.506;2023-03-24T08:38:18;7.93;;;4.40;;
34872;SDS011;21084;51.098;14.506;2023-03-24T08:40:49;9.55;;;4.25;;
34872;SDS011;21084;51.098;14.506;2023-03-24T08:43:19;14.43;;;4.28;;
34872;SDS011;21084;51.098;14.506;2023-03-24T08:45:50;10.27;;;4.65;;
34872;SDS011;21084;51.098;14.506;2023-03-24T08:48:19;8.70;;;4.30;;
34872;SDS011;21084;51.098;14.506;2023-03-24T08:50:48;5.53;;;4.03;;
34872;SDS011;21084;51.098;14.506;2023-03-24T08:53:17;13.65;;;4.93;;
34872;SDS011;21084;51.098;14.506;2023-03-24T08:55:46;7.63;;;4.83;;
34872;SDS011;21084;51.098;14.506;2023-03-24T08:58:16;10.83;;;4.30;;
34872;SDS011;21084;51.098;14.506;2023-03-24T09:00:46;10.93;;;4.47;;
34872;SDS011;21084;51.098;14.506;2023-03-24T09:03:17;5.55;;;4.03;;
34872;SDS011;21084;51.098;14.506;2023-03-24T09:05:48;7.57;;;4.10;;
34872;SDS011;21084;51.098;14.506;2023-03-24T09:08:17;7.05;;;4.07;;
34872;SDS011;21084;51.098;14.506;2023-03-24T09:10:46;7.25;;;4.10;;
34872;SDS011;21084;51.098;14.506;2023-03-24T09:13:17;8.60;;;3.60;;
34872;SDS011;21084;51.098;14.506;2023-03-24T09:15:46;11.82;;;5.25;;
34872;SDS011;21084;51.098;14.506;2023-03-24T09:18:19;5.50;;;3.90;;
34872;SDS011;21084;51.098;14.506;2023-03-24T09:20:48;6.13;;;3.92;;
34872;SDS011;21084;51.098;14.506;2023-03-24T09:23:18;7.20;;;3.92;;
34872;SDS011;21084;51.098;14.506;2023-03-24T09:25:47;9.68;;;4.15;;
34872;SDS011;21084;51.098;14.506;2023-03-24T09:28:16;6.32;;;3.92;;
34872;SDS011;21084;51.098;14.506;2023-03-24T09:30:45;5.78;;;3.75;;
34872;SDS011;21084;51.098;14.506;2023-03-24T09:33:14;5.87;;;3.60;;
34872;SDS011;21084;51.098;14.506;2023-03-24T09:35:44;7.18;;;3.80;;
34872;SDS011;21084;51.098;14.506;2023-03-24T09:38:12;7.45;;;3.83;;
34872;SDS011;21084;51.098;14.506;2023-03-24T09:40:41;11.10;;;3.80;;
34872;SDS011;21084;51.098;14.506;2023-03-24T09:43:12;5.10;;;3.78;;
34872;SDS011;21084;51.098;14.506;2023-03-24T09:45:49;6.32;;;3.80;;
34872;SDS011;21084;51.098;14.506;2023-03-24T09:48:21;8.55;;;4.25;;
34872;SDS011;21084;51.098;14.506;2023-03-24T09:50:59;6.28;;;3.97;;
34872;SDS011;21084;51.098;14.506;2023-03-24T09:53:32;7.57;;;4.03;;
34872;SDS011;21084;51.098;14.506;2023-03-24T09:56:10;9.13;;;4.60;;
34872;SDS011;21084;51.098;14.506;2023-03-24T09:58:40;6.97;;;4.35;;
34872;SDS011;21084;51.098;14.506;2023-03-24T10:03:40;7.82;;;3.95;;
34872;SDS011;21084;51.098;14.506;2023-03-24T10:06:14;9.10;;;4.10;;
34872;SDS011;21084;51.098;14.506;2023-03-24T10:08:49;9.23;;;4.97;;
34872;SDS011;21084;51.098;14.506;2023-03-24T10:11:26;7.68;;;4.00;;
34872;SDS011;21084;51.098;14.506;2023-03-24T10:14:04;7.63;;;4.45;;
34872;SDS011;21084;51.098;14.506;2023-03-24T10:16:45;9.57;;;4.05;;
34872;SDS011;21084;51.098;14.506;2023-03-24T10:19:23;7.10;;;4.25;;
34872;SDS011;21084;51.098;14.506;2023-03-24T10:22:09;8.70;;;4.35;;
34872;SDS011;21084;51.098;14.506;2023-03-24T10:24:44;7.90;;;4.05;;
34872;SDS011;21084;51.098;14.506;2023-03-24T10:27:19;8.85;;;4.40;;
34872;SDS011;21084;51.098;14.506;2023-03-24T10:29:56;8.00;;;4.00;;
34872;SDS011;21084;51.098;14.506;2023-03-24T10:32:31;6.35;;;4.15;;
34872;SDS011;21084;51.098;14.506;2023-03-24T10:35:02;7.32;;;4.00;;
34872;SDS011;21084;51.098;14.506;2023-03-24T10:37:37;8.98;;;4.10;;
34872;SDS011;21084;51.098;14.506;2023-03-24T10:42:41;8.88;;;4.22;;
34872;SDS011;21084;51.098;14.506;2023-03-24T10:45:12;7.07;;;3.92;;
34872;SDS011;21084;51.098;14.506;2023-03-24T10:47:42;7.65;;;4.13;;
34872;SDS011;21084;51.098;14.506;2023-03-24T10:50:11;6.40;;;4.03;;
34872;SDS011;21084;51.098;14.506;2023-03-24T10:52:43;5.53;;;3.78;;
34872;SDS011;21084;51.098;14.506;2023-03-24T10:55:15;7.05;;;4.18;;
34872;SDS011;21084;51.098;14.506;2023-03-24T10:57:47;6.47;;;4.00;;
34872;SDS011;21084;51.098;14.506;2023-03-24T11:00:20;7.43;;;4.00;;
34872;SDS011;21084;51.098;14.506;2023-03-24T11:02:53;8.18;;;3.92;;
34872;SDS011;21084;51.098;14.506;2023-03-24T11:05:25;6.30;;;3.97;;
34872;SDS011;21084;51.098;14.506;2023-03-24T11:08:01;6.00;;;3.50;;
34872;SDS011;21084;51.098;14.506;2023-03-24T11:10:40;6.72;;;4.05;;
34872;SDS011;21084;51.098;14.506;2023-03-24T11:13:15;9.30;;;3.85;;
34872;SDS011;21084;51.098;14.506;2023-03-24T11:15:52;6.97;;;3.63;;
34872;SDS011;21084;51.098;14.506;2023-03-24T11:18:22;7.60;;;4.05;;
34872;SDS011;21084;51.098;14.506;2023-03-24T11:20:52;5.75;;;3.75;;
34872;SDS011;21084;51.098;14.506;2023-03-24T11:23:28;8.80;;;3.53;;
34872;SDS011;21084;51.098;14.506;2023-03-24T11:26:04;8.50;;;3.95;;
34872;SDS011;21084;51.098;14.506;2023-03-24T11:28:36;7.70;;;3.40;;
34872;SDS011;21084;51.098;14.506;2023-03-24T11:31:07;6.60;;;3.17;;
34872;SDS011;21084;51.098;14.506;2023-03-24T11:33:42;6.22;;;3.20;;
34872;SDS011;21084;51.098;14.506;2023-03-24T11:39:20;6.22;;;3.40;;
34872;SDS011;21084;51.098;14.506;2023-03-24T11:42:01;5.10;;;3.08;;
34872;SDS011;21084;51.098;14.506;2023-03-24T11:44:40;6.43;;;3.88;;
34872;SDS011;21084;51.098;14.506;2023-03-24T11:47:12;9.02;;;3.97;;
34872;SDS011;21084;51.098;14.506;2023-03-24T11:49:48;6.65;;;3.50;;
34872;SDS011;21084;51.098;14.506;2023-03-24T11:52:26;8.25;;;3.40;;
34872;SDS011;21084;51.098;14.506;2023-03-24T11:55:00;6.97;;;3.80;;
34872;SDS011;21084;51.098;14.506;2023-03-24T11:57:35;5.88;;;3.80;;
34872;SDS011;21084;51.098;14.506;2023-03-24T12:00:13;9.52;;;3.97;;
34872;SDS011;21084;51.098;14.506;2023-03-24T12:02:57;7.63;;;3.55;;
34872;SDS011;21084;51.098;14.506;2023-03-24T12:05:35;5.60;;;3.70;;
34872;SDS011;21084;51.098;14.506;2023-03-24T12:08:11;9.55;;;3.83;;
34872;SDS011;21084;51.098;14.506;2023-03-24T12:10:57;7.63;;;3.72;;
34872;SDS011;21084;51.098;14.506;2023-03-24T12:13:45;5.65;;;3.42;;
34872;SDS011;21084;51.098;14.506;2023-03-24T12:16:29;11.07;;;3.83;;
34872;SDS011;21084;51.098;14.506;2023-03-24T12:22:10;7.43;;;3.03;;
34872;SDS011;21084;51.098;14.506;2023-03-24T12:24:55;10.18;;;3.25;;
34872;SDS011;21084;51.098;14.506;2023-03-24T12:27:40;9.27;;;3.38;;
34872;SDS011;21084;51.098;14.506;2023-03-24T12:30:19;6.30;;;2.72;;
34872;SDS011;21084;51.098;14.506;2023-03-24T12:32:57;6.57;;;3.13;;
34872;SDS011;21084;51.098;14.506;2023-03-24T12:35:38;5.05;;;2.67;;
34872;SDS011;21084;51.098;14.506;2023-03-24T12:38:24;10.73;;;2.92;;
34872;SDS011;21084;51.098;14.506;2023-03-24T12:41:07;5.60;;;2.45;;
34872;SDS011;21084;51.098;14.506;2023-03-24T12:43:56;5.65;;;2.00;;
34872;SDS011;21084;51.098;14.506;2023-03-24T12:46:38;1.55;;;1.17;;
34872;SDS011;21084;51.098;14.506;2023-03-24T12:49:22;3.97;;;1.25;;
34872;SDS011;21084;51.098;14.506;2023-03-24T12:52:06;1.48;;;1.00;;
34872;SDS011;21084;51.098;14.506;2023-03-24T12:54:49;3.25;;;1.10;;
34872;SDS011;21084;51.098;14.506;2023-03-24T12:57:23;1.40;;;0.88;;
34872;SDS011;21084;51.098;14.506;2023-03-24T12:59:56;1.13;;;0.90;;
34872;SDS011;21084;51.098;14.506;2023-03-24T13:02:29;1.38;;;0.80;;
34872;SDS011;21084;51.098;14.506;2023-03-24T13:05:04;1.08;;;0.98;;
34872;SDS011;21084;51.098;14.506;2023-03-24T13:07:36;2.10;;;0.90;;
34872;SDS011;21084;51.098;14.506;2023-03-24T13:10:06;0.80;;;0.80;;
34872;SDS011;21084;51.098;14.506;2023-03-24T13:12:44;1.35;;;0.90;;
34872;SDS011;21084;51.098;14.506;2023-03-24T13:15:21;1.83;;;0.90;;
34872;SDS011;21084;51.098;14.506;2023-03-24T13:18:02;1.10;;;0.90;;
34872;SDS011;21084;51.098;14.506;2023-03-24T13:20:41;2.35;;;0.70;;
34872;SDS011;21084;51.098;14.506;2023-03-24T13:23:18;1.92;;;1.20;;
34872;SDS011;21084;51.098;14.506;2023-03-24T13:26:04;1.80;;;1.10;;
34872;SDS011;21084;51.098;14.506;2023-03-24T13:28:44;4.30;;;1.10;;
34872;SDS011;21084;51.098;14.506;2023-03-24T13:31:20;1.42;;;1.33;;
34872;SDS011;21084;51.098;14.506;2023-03-24T13:33:51;2.53;;;1.63;;
34872;SDS011;21084;51.098;14.506;2023-03-24T13:36:24;3.15;;;1.30;;
34872;SDS011;21084;51.098;14.506;2023-03-24T13:39:01;4.40;;;1.40;;
34872;SDS011;21084;51.098;14.506;2023-03-24T13:41:35;2.20;;;1.60;;
34872;SDS011;21084;51.098;14.506;2023-03-24T13:44:06;3.85;;;1.75;;
34872;SDS011;21084;51.098;14.506;2023-03-24T13:46:43;1.35;;;1.10;;
34872;SDS011;21084;51.098;14.506;2023-03-24T13:49:29;2.53;;;1.20;;
34872;SDS011;21084;51.098;14.506;2023-03-24T13:52:01;1.00;;;0.90;;
34872;SDS011;21084;51.098;14.506;2023-03-24T13:54:33;1.40;;;1.02;;
34872;SDS011;21084;51.098;14.506;2023-03-24T13:57:04;1.17;;;1.00;;
34872;SDS011;21084;51.098;14.506;2023-03-24T13:59:38;2.40;;;1.30;;
34872;SDS011;21084;51.098;14.506;2023-03-24T14:02:20;1.67;;;1.27;;
34872;SDS011;21084;51.098;14.506;2023-03-24T14:05:01;4.18;;;1.40;;
34872;SDS011;21084;51.098;14.506;2023-03-24T14:07:32;5.10;;;1.50;;
34872;SDS011;21084;51.098;14.506;2023-03-24T14:13:03;7.88;;;1.55;;
34872;SDS011;21084;51.098;14.506;2023-03-24T14:15:46;2.08;;;1.38;;
34872;SDS011;21084;51.098;14.506;2023-03-24T14:21:10;5.32;;;1.48;;
34872;SDS011;21084;51.098;14.506;2023-03-24T14:23:39;4.90;;;1.50;;
34872;SDS011;21084;51.098;14.506;2023-03-24T14:26:11;10.70;;;1.60;;
34872;SDS011;21084;51.098;14.506;2023-03-24T14:28:42;5.18;;;1.70;;
34872;SDS011;21084;51.098;14.506;2023-03-24T14:31:19;65.93;;;5.63;;
34872;SDS011;21084;51.098;14.506;2023-03-24T14:34:01;50.85;;;4.72;;
34872;SDS011;21084;51.098;14.506;2023-03-24T14:36:36;41.40;;;3.90;;
34872;SDS011;21084;51.098;14.506;2023-03-24T14:39:16;14.88;;;1.98;;
34872;SDS011;21084;51.098;14.506;2023-03-24T14:41:52;9.00;;;1.77;;
34872;SDS011;21084;51.098;14.506;2023-03-24T14:47:21;7.80;;;1.65;;
34872;SDS011;21084;51.098;14.506;2023-03-24T14:49:57;3.28;;;1.13;;
34872;SDS011;21084;51.098;14.506;2023-03-24T14:52:30;8.57;;;1.38;;
34872;SDS011;21084;51.098;14.506;2023-03-24T14:55:06;2.05;;;1.42;;
34872;SDS011;21084;51.098;14.506;2023-03-24T14:57:45;3.80;;;1.30;;
34872;SDS011;21084;51.098;14.506;2023-03-24T15:00:21;3.05;;;1.20;;
34872;SDS011;21084;51.098;14.506;2023-03-24T15:02:58;3.85;;;1.23;;
34872;SDS011;21084;51.098;14.506;2023-03-24T15:05:36;6.43;;;2.25;;
34872;SDS011;21084;51.098;14.506;2023-03-24T15:08:15;4.60;;;1.98;;
34872;SDS011;21084;51.098;14.506;2023-03-24T15:10:51;2.33;;;1.35;;
34872;SDS011;21084;51.098;14.506;2023-03-24T15:13:28;3.97;;;2.00;;
34872;SDS011;21084;51.098;14.506;2023-03-24T15:16:03;4.18;;;1.85;;
34872;SDS011;21084;51.098;14.506;2023-03-24T15:18:35;4.30;;;2.40;;
34872;SDS011;21084;51.098;14.506;2023-03-24T15:21:31;6.50;;;1.73;;
34872;SDS011;21084;51.098;14.506;2023-03-24T15:24:02;3.55;;;1.67;;
34872;SDS011;21084;51.098;14.506;2023-03-24T15:26:51;3.85;;;1.95;;
34872;SDS011;21084;51.098;14.506;2023-03-24T15:29:22;5.28;;;2.00;;
34872;SDS011;21084;51.098;14.506;2023-03-24T15:31:51;1.87;;;1.40;;
34872;SDS011;21084;51.098;14.506;2023-03-24T15:34:26;6.05;;;1.67;;
34872;SDS011;21084;51.098;14.506;2023-03-24T15:36:59;4.93;;;2.00;;
34872;SDS011;21084;51.098;14.506;2023-03-24T15:39:31;3.33;;;1.70;;
34872;SDS011;21084;51.098;14.506;2023-03-24T15:42:03;3.28;;;1.90;;
34872;SDS011;21084;51.098;14.506;2023-03-24T15:44:35;6.82;;;2.72;;
34872;SDS011;21084;51.098;14.506;2023-03-24T15:47:09;11.18;;;5.32;;
34872;SDS011;21084;51.098;14.506;2023-03-24T15:49:45;5.07;;;2.72;;
34872;SDS011;21084;51.098;14.506;2023-03-24T15:52:28;6.28;;;3.00;;